createdAt,value
2022-08-18T00:01:45.343Z,22.90
2022-08-18T00:04:35.117Z,23.00
2022-08-18T00:07:00.829Z,22.90
2022-08-18T00:09:32.189Z,22.90
2022-08-18T00:12:01.088Z,22.90
2022-08-18T00:14:28.015Z,22.80
2022-08-18T00:16:55.044Z,22.80
2022-08-18T00:19:45.408Z,22.80
2022-08-18T00:22:14.874Z,22.80
2022-08-18T00:24:48.639Z,22.80
2022-08-18T00:27:23.403Z,22.80
2022-08-18T00:29:51.332Z,22.80
2022-08-18T00:32:20.015Z,22.80
2022-08-18T00:34:46.998Z,22.80
2022-08-18T00:37:13.965Z,22.80
2022-08-18T00:39:46.481Z,22.80
2022-08-18T00:42:29.800Z,22.70
2022-08-18T00:44:59.545Z,22.70
2022-08-18T00:47:41.663Z,22.70
2022-08-18T00:50:15.387Z,22.70
2022-08-18T00:52:45.559Z,22.70
2022-08-18T00:55:12.629Z,22.70
2022-08-18T00:57:39.765Z,22.70
2022-08-18T01:00:11.925Z,22.70
2022-08-18T01:02:42.211Z,22.70
2022-08-18T01:05:13.663Z,22.60
2022-08-18T01:07:51.343Z,22.60
2022-08-18T01:10:20.371Z,22.60
2022-08-18T01:12:49.038Z,22.50
2022-08-18T01:15:28.674Z,22.50
2022-08-18T01:18:17.404Z,22.50
2022-08-18T01:21:06.936Z,22.50
2022-08-18T01:23:35.274Z,22.40
2022-08-18T01:26:04.401Z,22.40
2022-08-18T01:28:33.343Z,22.30
2022-08-18T01:31:01.404Z,22.30
2022-08-18T01:33:32.667Z,22.30
2022-08-18T01:38:28.465Z,22.30
2022-08-18T01:41:23.661Z,22.20
2022-08-18T01:43:42.667Z,22.20
2022-08-18T01:46:09.594Z,22.20
2022-08-18T01:48:37.491Z,22.20
2022-08-18T01:51:06.095Z,22.30
2022-08-18T01:53:33.327Z,22.30
2022-08-18T01:56:00.324Z,22.30
2022-08-18T01:58:31.817Z,22.30
2022-08-18T02:01:01.774Z,22.30
2022-08-18T02:03:31.212Z,22.30
2022-08-18T02:06:01.620Z,22.30
2022-08-18T02:08:29.003Z,22.30
2022-08-18T02:10:57.391Z,22.20
2022-08-18T02:13:25.584Z,22.20
2022-08-18T02:15:52.821Z,22.20
2022-08-18T02:18:37.193Z,22.20
2022-08-18T02:21:10.681Z,22.20
2022-08-18T02:23:38.619Z,22.20
2022-08-18T02:26:09.814Z,22.20
2022-08-18T02:28:37.129Z,22.20
2022-08-18T02:31:08.066Z,22.20
2022-08-18T02:33:38.707Z,22.20
2022-08-18T02:36:07.252Z,22.10
2022-08-18T02:38:34.389Z,22.10
2022-08-18T02:43:29.228Z,21.90
2022-08-18T02:45:56.250Z,21.90
2022-08-18T02:48:35.401Z,21.80
2022-08-18T02:51:02.565Z,21.80
2022-08-18T02:53:29.557Z,21.90
2022-08-18T02:56:04.289Z,21.80
2022-08-18T02:58:33.649Z,21.80
2022-08-18T03:01:00.708Z,21.90
2022-08-18T03:03:27.688Z,21.90
2022-08-18T03:05:54.703Z,21.90
2022-08-18T03:08:21.661Z,22.00
2022-08-18T03:10:51.556Z,22.00
2022-08-18T03:13:18.799Z,22.00
2022-08-18T03:15:46.598Z,22.00
2022-08-18T03:18:13.873Z,22.00
2022-08-18T03:20:44.201Z,21.90
2022-08-18T03:23:11.777Z,22.00
2022-08-18T03:25:45.741Z,22.00
2022-08-18T03:28:13.296Z,21.90
2022-08-18T03:30:40.575Z,21.90
2022-08-18T03:33:07.802Z,21.90
2022-08-18T03:35:35.923Z,21.80
2022-08-18T03:38:03.730Z,21.70
2022-08-18T03:40:30.974Z,21.70
2022-08-18T03:42:57.955Z,21.70
2022-08-18T03:45:32.084Z,21.60
2022-08-18T03:48:00.753Z,21.60
2022-08-18T03:50:28.640Z,21.70
2022-08-18T03:52:59.443Z,21.70
2022-08-18T03:55:29.790Z,21.70
2022-08-18T03:58:06.007Z,21.70
2022-08-18T04:00:33.904Z,21.80
2022-08-18T04:03:02.639Z,21.80
2022-08-18T04:07:57.380Z,21.90
2022-08-18T04:10:26.764Z,22.00
2022-08-18T04:12:53.922Z,22.00
2022-08-18T04:15:20.958Z,22.00
2022-08-18T04:17:56.048Z,22.00
2022-08-18T04:20:33.349Z,22.00
2022-08-18T04:23:00.776Z,22.10
2022-08-18T04:25:32.608Z,22.10
2022-08-18T04:28:01.498Z,22.20
2022-08-18T04:30:29.215Z,22.30
2022-08-18T04:32:56.183Z,22.40
2022-08-18T04:35:23.792Z,22.40
2022-08-18T04:37:51.234Z,22.50
2022-08-18T04:40:24.327Z,22.40
2022-08-18T04:42:52.184Z,22.50
2022-08-18T04:45:19.181Z,22.50
2022-08-18T04:47:46.227Z,22.50
2022-08-18T04:50:13.330Z,22.50
2022-08-18T04:52:59.109Z,22.60
2022-08-18T04:55:26.093Z,22.60
2022-08-18T04:57:53.298Z,22.70
2022-08-18T05:00:20.565Z,22.70
2022-08-18T05:02:47.597Z,22.80
2022-08-18T05:05:14.649Z,22.70
2022-08-18T05:07:46.054Z,22.70
2022-08-18T05:10:14.250Z,22.70
2022-08-18T05:12:42.563Z,22.80
2022-08-18T05:15:09.813Z,22.80
2022-08-18T05:17:39.625Z,22.80
2022-08-18T05:20:09.734Z,22.90
2022-08-18T05:22:40.882Z,22.90
2022-08-18T05:25:09.706Z,23.00
2022-08-18T05:27:38.084Z,23.00
2022-08-18T05:30:06.228Z,23.10
2022-08-18T05:32:48.318Z,23.20
2022-08-18T05:35:19.047Z,23.30
2022-08-18T05:38:00.877Z,23.40
2022-08-18T05:40:29.610Z,23.50
2022-08-18T05:42:57.523Z,23.60
2022-08-18T05:45:24.906Z,23.70
2022-08-18T05:47:57.171Z,23.70
2022-08-18T09:20:10.410Z,35.60
2022-08-18T09:22:49.378Z,36.30
2022-08-18T09:25:34.934Z,36.90
2022-08-18T09:28:13.495Z,36.80
2022-08-18T09:30:59.015Z,36.20
2022-08-18T09:33:26.005Z,35.80
2022-08-18T09:36:06.541Z,36.00
2022-08-18T09:38:57.767Z,35.90
2022-08-18T09:41:38.088Z,36.20
2022-08-18T09:47:01.443Z,36.90
2022-08-18T09:49:29.302Z,37.40
2022-08-18T09:51:58.974Z,37.10
2022-08-18T09:54:31.119Z,37.00
2022-08-18T09:57:06.113Z,37.20
2022-08-18T09:59:34.251Z,37.60
2022-08-18T10:02:32.190Z,37.80
2022-08-18T10:05:19.139Z,37.60
2022-08-18T10:07:50.780Z,37.50
2022-08-18T10:11:02.165Z,37.40
2022-08-18T10:13:24.853Z,37.00
2022-08-18T10:15:58.418Z,36.70
2022-08-18T10:18:56.752Z,36.70
2022-08-18T10:21:31.567Z,37.30
2022-08-18T10:24:37.275Z,37.60
2022-08-18T10:27:06.764Z,37.70
2022-08-18T10:29:44.664Z,38.50
2022-08-18T10:32:14.754Z,38.80
2022-08-18T10:34:51.405Z,39.00
2022-08-18T10:37:34.841Z,39.10
2022-08-18T10:40:01.931Z,38.40
2022-08-18T10:42:33.760Z,38.30
2022-08-18T10:45:06.137Z,38.90
2022-08-18T10:47:34.229Z,39.20
2022-08-18T10:50:03.220Z,39.70
2022-08-18T10:52:30.221Z,40.20
2022-08-18T10:55:17.423Z,40.50
2022-08-18T10:57:59.845Z,40.70
2022-08-18T11:00:36.886Z,40.70
2022-08-18T11:06:01.717Z,41.00
2022-08-18T11:08:31.738Z,40.90
2022-08-18T11:11:33.045Z,40.60
2022-08-18T11:14:01.411Z,39.70
2022-08-18T11:16:51.275Z,39.00
2022-08-18T11:19:22.850Z,39.10
2022-08-18T11:21:51.970Z,39.50
2022-08-18T11:24:21.959Z,39.40
2022-08-18T11:29:39.367Z,38.50
2022-08-18T11:32:18.337Z,38.30
2022-08-18T11:35:07.609Z,38.50
2022-08-18T11:37:49.808Z,39.10
2022-08-18T11:40:52.008Z,40.00
2022-08-18T11:43:09.472Z,40.30
2022-08-18T11:45:52.291Z,40.40
2022-08-18T11:48:25.158Z,40.20
2022-08-18T11:50:56.961Z,40.20
2022-08-18T11:53:26.100Z,39.70
2022-08-18T11:56:13.525Z,40.10
2022-08-18T11:58:41.342Z,40.40
2022-08-18T12:01:09.518Z,40.30
2022-08-18T12:03:38.521Z,39.70
2022-08-18T12:12:15.616Z,39.90
2022-08-18T12:15:04.910Z,40.20
2022-08-18T12:17:39.325Z,40.40
2022-08-18T12:20:08.901Z,39.80
2022-08-18T12:22:41.066Z,39.20
2022-08-18T12:25:12.493Z,39.20
2022-08-18T12:27:39.541Z,38.60
2022-08-18T12:30:08.385Z,38.50
2022-08-18T12:32:49.509Z,39.10
2022-08-18T12:35:21.888Z,38.40
2022-08-18T12:38:13.854Z,38.00
2022-08-18T12:40:36.923Z,37.70
2022-08-18T12:43:03.972Z,37.80
2022-08-18T12:45:33.869Z,37.50
2022-08-18T12:48:02.616Z,36.90
2022-08-18T12:50:36.212Z,36.50
2022-08-18T12:53:06.793Z,36.40
2022-08-18T12:55:43.604Z,36.10
2022-08-18T12:58:12.173Z,35.70
2022-08-18T13:00:40.878Z,35.20
2022-08-18T13:03:08.685Z,34.70
2022-08-18T13:05:37.449Z,34.40
2022-08-18T13:08:05.708Z,34.20
2022-08-18T13:10:45.794Z,33.90
2022-08-18T13:13:18.308Z,33.80
2022-08-18T13:15:57.782Z,33.60
2022-08-18T13:18:28.974Z,33.70
2022-08-18T13:20:57.706Z,33.70
2022-08-18T13:23:27.624Z,33.80
2022-08-18T13:25:59.378Z,33.80
2022-08-18T13:28:30.943Z,33.90
2022-08-18T13:31:04.225Z,33.80
2022-08-18T13:33:35.089Z,33.80
2022-08-18T13:36:20.441Z,33.80
2022-08-18T13:38:50.219Z,33.60
2022-08-18T13:41:17.345Z,33.40
2022-08-18T13:43:45.032Z,33.30
2022-08-18T13:46:16.898Z,33.20
2022-08-18T13:48:44.601Z,33.20
2022-08-18T13:51:23.795Z,33.00
2022-08-18T13:54:06.289Z,32.80
2022-08-18T13:56:39.860Z,32.80
2022-08-18T13:59:07.483Z,32.70
2022-08-18T14:01:51.662Z,32.70
2022-08-18T14:04:22.271Z,32.80
2022-08-18T14:06:56.721Z,32.70
2022-08-18T14:09:36.012Z,32.60
2022-08-18T14:12:06.580Z,32.60
2022-08-18T14:14:34.038Z,32.60
2022-08-18T14:17:01.085Z,32.50
2022-08-18T14:19:46.668Z,32.50
2022-08-18T14:22:32.492Z,32.50
2022-08-18T14:25:22.318Z,32.40
2022-08-18T14:27:57.022Z,32.30
2022-08-18T14:30:24.390Z,32.30
2022-08-18T14:32:53.690Z,32.30
2022-08-18T14:35:34.566Z,32.30
2022-08-18T14:38:09.923Z,32.30
2022-08-18T14:40:41.663Z,32.30
2022-08-18T14:43:10.874Z,32.10
2022-08-18T14:45:38.098Z,32.10
2022-08-18T14:48:07.411Z,32.00
2022-08-18T14:50:37.077Z,32.00
2022-08-18T14:53:04.486Z,32.10
2022-08-18T14:55:31.539Z,32.10
2022-08-18T14:57:59.597Z,32.00
2022-08-18T15:00:27.002Z,32.00
2022-08-18T15:02:54.811Z,32.00
2022-08-18T15:05:24.321Z,32.00
2022-08-18T15:07:52.917Z,31.90
2022-08-18T15:10:23.782Z,31.80
2022-08-18T15:12:55.216Z,31.70
2022-08-18T15:15:22.936Z,31.60
2022-08-18T15:17:52.657Z,31.50
2022-08-18T15:20:28.670Z,31.50
2022-08-18T15:23:22.881Z,31.50
2022-08-18T15:25:55.272Z,31.50
2022-08-18T15:28:25.226Z,31.50
2022-08-18T15:31:16.533Z,31.50
2022-08-18T15:33:39.592Z,31.40
2022-08-18T15:36:09.669Z,31.40
2022-08-18T15:38:37.556Z,31.40
2022-08-18T15:41:06.129Z,31.30
2022-08-18T15:43:39.944Z,31.20
2022-08-18T15:46:14.047Z,31.20
2022-08-18T15:48:44.205Z,31.10
2022-08-18T15:51:12.130Z,31.00
2022-08-18T15:53:44.832Z,31.00
2022-08-18T15:56:20.629Z,31.00
2022-08-18T15:58:49.126Z,31.00
2022-08-18T16:01:20.804Z,31.00
2022-08-18T16:03:57.400Z,31.00
2022-08-18T16:06:27.537Z,30.90
2022-08-18T16:08:59.078Z,30.80
2022-08-18T16:11:29.262Z,30.80
2022-08-18T16:13:59.125Z,30.80
2022-08-18T16:16:29.019Z,30.80
2022-08-18T16:19:03.716Z,30.80
2022-08-18T16:21:30.781Z,30.70
2022-08-18T16:23:58.425Z,30.70
2022-08-18T16:26:25.538Z,30.60
2022-08-18T16:28:53.032Z,30.60
2022-08-18T16:31:25.017Z,30.60
2022-08-18T16:33:53.998Z,30.60
2022-08-18T16:36:21.847Z,30.60
2022-08-18T16:38:48.928Z,30.50
2022-08-18T16:41:20.846Z,30.50
2022-08-18T16:43:48.348Z,30.50
2022-08-18T16:46:17.760Z,30.50
2022-08-18T16:48:45.915Z,30.40
2022-08-18T16:51:17.053Z,30.40
2022-08-18T16:53:46.303Z,30.40
2022-08-18T16:56:14.796Z,30.30
2022-08-18T16:59:00.128Z,30.30
2022-08-18T17:01:48.821Z,30.20
2022-08-18T17:04:23.953Z,30.20
2022-08-18T17:06:51.135Z,30.20
2022-08-18T17:09:18.793Z,30.10
2022-08-18T17:11:51.797Z,30.10
2022-08-18T17:14:23.453Z,30.10
2022-08-18T17:16:53.879Z,30.00
2022-08-18T17:19:22.332Z,29.90
2022-08-18T17:21:49.349Z,29.90
2022-08-18T17:24:19.882Z,29.80
2022-08-18T17:27:19.225Z,29.80
2022-08-18T17:30:10.908Z,29.80
2022-08-18T17:32:42.540Z,29.70
2022-08-18T17:35:09.726Z,29.70
2022-08-18T17:37:38.632Z,29.60
2022-08-18T17:40:08.980Z,29.60
2022-08-18T17:42:40.093Z,29.50
2022-08-18T17:45:10.449Z,29.50
2022-08-18T17:47:44.589Z,29.50
2022-08-18T17:50:39.431Z,29.40
2022-08-18T17:53:06.551Z,29.40
2022-08-18T17:55:41.431Z,29.40
2022-08-18T17:58:16.475Z,29.30
2022-08-18T18:00:43.499Z,29.30
2022-08-18T18:03:13.152Z,29.20
2022-08-18T18:05:47.350Z,29.20
2022-08-18T18:08:14.360Z,29.10
2022-08-18T18:13:32.627Z,29.00
2022-08-18T18:16:01.284Z,29.00
2022-08-18T18:18:32.153Z,28.90
2022-08-18T18:21:19.399Z,28.80
2022-08-18T18:23:47.938Z,28.80
2022-08-18T18:26:26.558Z,28.70
2022-08-18T18:29:11.292Z,28.70
2022-08-18T18:31:40.401Z,28.60
2022-08-18T18:34:23.408Z,28.60
2022-08-18T18:36:55.181Z,28.50
2022-08-18T18:39:33.704Z,28.50
2022-08-18T18:42:09.701Z,28.50
2022-08-18T18:44:36.791Z,28.50
2022-08-18T18:47:10.834Z,28.50
2022-08-18T18:49:46.962Z,28.40
2022-08-18T18:52:23.660Z,28.30
2022-08-18T18:54:59.788Z,28.30
2022-08-18T18:57:54.143Z,28.30
2022-08-18T19:00:40.709Z,28.30
2022-08-18T19:03:28.858Z,28.20
2022-08-18T19:06:11.395Z,28.20
2022-08-18T19:08:43.936Z,28.10
2022-08-18T19:11:14.365Z,28.10
2022-08-18T19:13:54.551Z,28.00
2022-08-18T19:16:24.850Z,28.00
2022-08-18T19:18:57.712Z,28.00
2022-08-18T19:22:04.197Z,28.00
2022-08-18T19:24:31.120Z,28.00
2022-08-18T19:27:00.031Z,27.90
2022-08-18T19:29:29.645Z,27.90
2022-08-18T19:32:16.385Z,27.90
2022-08-18T19:34:51.453Z,27.90
2022-08-18T19:37:27.483Z,27.80
2022-08-18T19:40:12.927Z,27.80
2022-08-18T19:42:58.800Z,27.80
2022-08-18T19:45:36.475Z,27.70
2022-08-18T19:48:03.484Z,27.70
2022-08-18T19:50:46.002Z,27.70
2022-08-18T19:53:27.708Z,27.60
2022-08-18T19:55:54.641Z,27.60
2022-08-18T19:58:49.193Z,27.50
2022-08-18T20:01:38.889Z,27.40
2022-08-18T20:04:32.046Z,27.40
2022-08-18T20:07:08.352Z,27.30
2022-08-18T20:09:45.227Z,27.20
2022-08-18T20:12:38.370Z,27.20
2022-08-18T20:15:14.135Z,27.20
2022-08-18T20:17:58.083Z,27.10
2022-08-18T20:20:27.026Z,27.10
2022-08-18T20:22:57.210Z,27.00
2022-08-18T20:25:24.418Z,27.00
2022-08-18T20:27:52.725Z,27.00
2022-08-18T20:30:19.763Z,27.00
2022-08-18T20:33:00.636Z,27.00
2022-08-18T20:35:32.584Z,26.90
2022-08-18T20:38:19.107Z,26.90
2022-08-18T20:40:48.032Z,26.90
2022-08-18T20:43:26.899Z,26.90
2022-08-18T20:46:16.940Z,26.90
2022-08-18T20:48:53.157Z,26.90
2022-08-18T20:51:24.167Z,26.90
2022-08-18T20:53:57.986Z,26.80
2022-08-18T20:56:31.954Z,26.80
2022-08-18T20:59:08.979Z,26.70
2022-08-18T21:01:36.999Z,26.60
2022-08-18T21:04:06.455Z,26.60
2022-08-18T21:06:44.590Z,26.50
2022-08-18T21:09:17.485Z,26.40
2022-08-18T21:11:45.644Z,26.40
2022-08-18T21:14:15.144Z,26.30
2022-08-18T21:16:45.142Z,26.30
2022-08-18T21:19:18.515Z,26.30
2022-08-18T21:21:51.559Z,26.30
2022-08-18T21:24:33.528Z,26.30
2022-08-18T21:27:06.201Z,26.20
2022-08-18T21:29:46.885Z,26.20
2022-08-18T21:32:21.939Z,26.10
2022-08-18T21:34:49.034Z,26.10
2022-08-18T21:37:18.227Z,26.00
2022-08-18T21:42:18.576Z,26.00
2022-08-18T21:44:46.628Z,26.00
2022-08-18T21:47:30.299Z,25.90
2022-08-18T21:49:58.340Z,25.90
2022-08-18T21:52:28.343Z,25.90
2022-08-18T21:54:57.962Z,25.80
2022-08-18T21:57:26.764Z,25.80
2022-08-18T22:00:26.340Z,25.80
2022-08-18T22:03:10.883Z,25.80
2022-08-18T22:05:57.953Z,25.70
2022-08-18T22:08:26.995Z,25.70
2022-08-18T22:11:47.340Z,25.60
2022-08-18T22:16:46.284Z,25.50
2022-08-18T22:19:19.370Z,25.40
2022-08-18T22:21:51.752Z,25.40
2022-08-18T22:24:27.168Z,25.40
2022-08-18T22:27:06.113Z,25.30
2022-08-18T22:29:33.943Z,25.30
2022-08-18T22:32:01.963Z,25.20
2022-08-18T22:34:30.508Z,25.10
2022-08-18T22:39:49.044Z,25.00
2022-08-18T22:42:17.275Z,25.00
2022-08-18T22:44:44.725Z,24.90
2022-08-18T22:47:12.227Z,24.90
2022-08-18T22:49:39.694Z,24.90
2022-08-18T22:52:12.966Z,24.80
2022-08-18T22:54:40.068Z,24.80
2022-08-18T22:57:10.764Z,24.80
2022-08-18T22:59:37.693Z,24.70
2022-08-18T23:02:11.358Z,24.70
2022-08-18T23:04:38.315Z,24.60
2022-08-18T23:07:05.349Z,24.60
2022-08-18T23:09:33.361Z,24.50
2022-08-18T23:12:02.331Z,24.50
2022-08-18T23:14:32.934Z,24.50
2022-08-18T23:17:00.475Z,24.40
2022-08-18T23:19:29.168Z,24.40
2022-08-18T23:21:56.164Z,24.40
2022-08-18T23:24:23.099Z,24.40
2022-08-18T23:26:50.159Z,24.30
2022-08-18T23:29:18.884Z,24.40
2022-08-18T23:31:46.462Z,24.40
2022-08-18T23:34:15.576Z,24.30
2022-08-18T23:36:45.845Z,24.30
2022-08-18T23:41:40.639Z,24.30
2022-08-18T23:44:07.780Z,24.20
2022-08-18T23:46:34.998Z,24.20
2022-08-18T23:49:02.803Z,24.20
2022-08-18T23:51:34.885Z,24.10
2022-08-18T23:54:03.663Z,24.20
2022-08-18T23:56:31.220Z,24.10
2022-08-18T23:58:58.415Z,24.10
